createdAt,value
2022-12-22T00:01:19.337Z,90.78
2022-12-22T00:02:40.255Z,90.38
2022-12-22T00:04:00.756Z,90.45
2022-12-22T00:05:21.114Z,90.51
2022-12-22T00:06:41.131Z,90.64
2022-12-22T00:08:01.184Z,90.97
2022-12-22T00:09:21.330Z,90.54
2022-12-22T00:10:41.637Z,90.53
2022-12-22T00:12:02.200Z,90.33
2022-12-22T00:13:23.160Z,90.36
2022-12-22T00:14:43.893Z,90.44
2022-12-22T00:16:05.042Z,90.60
2022-12-22T00:17:32.769Z,90.47
2022-12-22T00:18:52.853Z,90.06
2022-12-22T00:20:18.286Z,90.20
2022-12-22T00:21:39.112Z,90.06
2022-12-22T00:22:59.403Z,89.99
2022-12-22T00:24:19.454Z,89.76
2022-12-22T00:25:39.932Z,89.73
2022-12-22T00:27:01.010Z,89.56
2022-12-22T00:28:22.784Z,89.46
2022-12-22T00:29:43.053Z,89.24
2022-12-22T00:31:04.289Z,89.08
2022-12-22T00:32:25.029Z,89.19
2022-12-22T00:33:45.121Z,89.05
2022-12-22T00:35:05.771Z,89.14
2022-12-22T00:36:29.116Z,89.01
2022-12-22T00:37:51.320Z,89.18
2022-12-22T00:39:11.422Z,89.06
2022-12-22T00:40:35.678Z,89.29
2022-12-22T00:41:55.898Z,88.71
2022-12-22T00:43:16.260Z,88.87
2022-12-22T00:44:36.380Z,89.50
2022-12-22T00:45:57.179Z,89.82
2022-12-22T00:47:17.531Z,89.66
2022-12-22T00:48:43.705Z,89.92
2022-12-22T00:50:05.387Z,90.57
2022-12-22T00:51:26.055Z,90.62
2022-12-22T00:52:46.192Z,90.68
2022-12-22T00:54:06.233Z,91.15
2022-12-22T00:55:33.551Z,90.70
2022-12-22T00:56:54.138Z,91.64
2022-12-22T00:58:14.767Z,91.77
2022-12-22T00:59:34.960Z,91.64
2022-12-22T01:00:55.167Z,92.02
2022-12-22T01:02:15.726Z,92.14
2022-12-22T01:03:36.175Z,92.41
2022-12-22T01:04:56.464Z,92.05
2022-12-22T01:06:21.129Z,92.41
2022-12-22T01:07:43.434Z,92.35
2022-12-22T01:09:04.135Z,92.77
2022-12-22T01:10:26.141Z,92.70
2022-12-22T01:11:46.645Z,92.56
2022-12-22T01:13:06.714Z,92.78
2022-12-22T01:14:34.152Z,92.80
2022-12-22T01:15:54.423Z,92.83
2022-12-22T01:17:14.663Z,92.79
2022-12-22T01:18:35.453Z,92.46
2022-12-22T01:19:55.932Z,92.87
2022-12-22T01:21:18.179Z,92.60
2022-12-22T01:22:39.858Z,92.88
2022-12-22T01:24:00.422Z,93.15
2022-12-22T01:25:20.984Z,93.11
2022-12-22T01:26:41.198Z,93.28
2022-12-22T01:28:01.450Z,93.77
2022-12-22T01:29:22.304Z,93.66
2022-12-22T01:30:42.643Z,94.18
2022-12-22T01:32:03.090Z,94.03
2022-12-22T01:33:24.166Z,94.02
2022-12-22T01:34:44.295Z,93.91
2022-12-22T01:36:04.682Z,94.18
2022-12-22T01:37:24.813Z,93.89
2022-12-22T01:38:44.992Z,94.05
2022-12-22T01:40:05.177Z,94.08
2022-12-22T01:41:29.885Z,93.85
2022-12-22T01:42:51.750Z,94.11
2022-12-22T01:44:12.031Z,93.54
2022-12-22T01:45:40.224Z,93.45
2022-12-22T01:47:05.081Z,93.38
2022-12-22T01:48:30.202Z,93.25
2022-12-22T01:50:00.198Z,93.59
2022-12-22T01:51:31.617Z,93.49
2022-12-22T01:52:53.978Z,93.45
2022-12-22T01:54:15.611Z,93.14
2022-12-22T01:55:39.043Z,93.07
2022-12-22T01:57:00.656Z,93.03
2022-12-22T01:58:21.244Z,93.10
2022-12-22T01:59:41.401Z,93.16
2022-12-22T02:01:03.589Z,93.03
2022-12-22T02:02:25.426Z,93.02
2022-12-22T02:03:46.038Z,92.92
2022-12-22T02:05:06.493Z,92.70
2022-12-22T02:06:27.197Z,92.71
2022-12-22T02:07:56.907Z,92.82
2022-12-22T02:09:40.227Z,92.84
2022-12-22T02:11:08.267Z,92.70
2022-12-22T02:12:28.327Z,92.83
2022-12-22T02:14:01.583Z,92.85
2022-12-22T02:15:21.598Z,92.34
2022-12-22T02:16:48.216Z,92.47
2022-12-22T02:18:17.503Z,92.78
2022-12-22T02:20:00.788Z,92.87
2022-12-22T02:21:26.536Z,92.90
2022-12-22T02:22:55.911Z,93.21
2022-12-22T02:24:25.187Z,93.36
2022-12-22T02:25:48.856Z,93.29
2022-12-22T02:27:09.864Z,93.05
2022-12-22T02:28:31.421Z,92.77
2022-12-22T02:29:54.502Z,93.01
2022-12-22T02:31:15.619Z,92.53
2022-12-22T02:32:35.833Z,92.53
2022-12-22T02:33:56.071Z,92.37
2022-12-22T02:35:16.293Z,93.06
2022-12-22T02:36:55.581Z,93.02
2022-12-22T02:38:34.382Z,92.85
2022-12-22T02:40:01.978Z,92.99
2022-12-22T02:41:34.414Z,93.02
2022-12-22T02:43:15.186Z,93.08
2022-12-22T02:44:44.348Z,92.79
2022-12-22T02:46:16.093Z,92.63
2022-12-22T02:47:46.871Z,92.52
2022-12-22T02:49:12.242Z,92.40
2022-12-22T02:50:43.446Z,92.84
2022-12-22T02:52:06.514Z,92.77
2022-12-22T02:53:27.328Z,92.75
2022-12-22T02:54:48.545Z,92.81
2022-12-22T02:56:08.639Z,92.54
2022-12-22T02:57:29.213Z,92.53
2022-12-22T02:58:51.350Z,92.23
2022-12-22T03:00:12.021Z,92.71
2022-12-22T03:01:32.358Z,92.22
2022-12-22T03:02:52.720Z,93.11
2022-12-22T03:04:13.347Z,92.89
2022-12-22T03:05:34.293Z,93.30
2022-12-22T03:06:54.432Z,93.16
2022-12-22T03:08:14.558Z,93.39
2022-12-22T03:09:34.591Z,93.34
2022-12-22T03:10:55.216Z,92.96
2022-12-22T03:12:15.422Z,93.20
2022-12-22T03:13:35.380Z,93.40
2022-12-22T03:14:55.448Z,93.40
2022-12-22T03:16:15.574Z,93.42
2022-12-22T03:17:36.159Z,92.79
2022-12-22T03:18:56.265Z,93.31
2022-12-22T03:20:17.148Z,93.46
2022-12-22T03:21:37.398Z,93.28
2022-12-22T03:22:57.542Z,92.97
2022-12-22T03:24:17.604Z,92.89
2022-12-22T03:25:38.194Z,92.87
2022-12-22T03:26:40.023Z,92.84
2022-12-22T03:27:41.896Z,93.02
2022-12-22T03:28:43.821Z,93.26
2022-12-22T03:29:45.598Z,93.07
2022-12-22T03:30:52.987Z,93.35
2022-12-22T03:31:54.882Z,93.39
2022-12-22T03:32:56.702Z,93.12
2022-12-22T03:33:58.621Z,93.43
2022-12-22T03:35:00.504Z,93.63
2022-12-22T03:36:02.805Z,93.24
2022-12-22T03:37:04.653Z,93.61
2022-12-22T03:38:06.497Z,93.54
2022-12-22T03:39:08.444Z,93.66
2022-12-22T03:40:10.477Z,93.42
2022-12-22T03:41:34.935Z,93.62
2022-12-22T03:42:55.186Z,93.10
2022-12-22T03:44:15.928Z,93.38
2022-12-22T03:45:36.970Z,93.59
2022-12-22T03:46:38.928Z,93.23
2022-12-22T03:47:40.926Z,93.58
2022-12-22T03:48:43.203Z,93.17
2022-12-22T03:49:45.043Z,93.54
2022-12-22T03:50:46.926Z,93.62
2022-12-22T03:51:52.304Z,93.99
2022-12-22T03:52:54.160Z,93.71
2022-12-22T03:53:55.900Z,94.31
2022-12-22T03:54:57.773Z,94.48
2022-12-22T03:56:05.674Z,94.12
2022-12-22T03:57:09.513Z,94.00
2022-12-22T03:58:11.274Z,94.09
2022-12-22T03:59:13.242Z,94.20
2022-12-22T04:00:15.475Z,94.09
2022-12-22T04:01:17.406Z,94.13
2022-12-22T04:02:20.473Z,94.38
2022-12-22T04:03:22.449Z,94.17
2022-12-22T04:04:25.649Z,94.00
2022-12-22T04:05:27.554Z,94.26
2022-12-22T04:06:29.384Z,94.07
2022-12-22T04:07:31.486Z,94.30
2022-12-22T04:08:33.281Z,94.29
2022-12-22T04:09:35.209Z,94.09
2022-12-22T04:10:55.310Z,94.52
2022-12-22T04:12:15.372Z,94.13
2022-12-22T04:13:17.555Z,94.53
2022-12-22T04:14:19.723Z,94.18
2022-12-22T04:15:28.928Z,94.66
2022-12-22T04:16:31.034Z,94.29
2022-12-22T04:17:32.895Z,94.18
2022-12-22T04:18:35.044Z,94.34
2022-12-22T04:19:36.848Z,94.34
2022-12-22T04:20:38.710Z,94.10
2022-12-22T04:21:40.585Z,94.15
2022-12-22T04:22:42.411Z,94.17
2022-12-22T04:23:44.450Z,94.25
2022-12-22T04:24:46.373Z,94.49
2022-12-22T04:25:48.189Z,94.44
2022-12-22T04:26:50.310Z,94.15
2022-12-22T04:27:52.177Z,94.67
2022-12-22T04:28:54.433Z,94.50
2022-12-22T04:29:56.366Z,93.72
2022-12-22T04:30:58.266Z,93.82
2022-12-22T04:32:00.206Z,94.07
2022-12-22T04:33:02.095Z,94.22
2022-12-22T04:34:04.055Z,94.03
2022-12-22T04:35:06.684Z,93.98
2022-12-22T04:36:08.740Z,94.08
2022-12-22T04:37:17.121Z,93.77
2022-12-22T04:38:19.753Z,94.46
2022-12-22T04:39:21.625Z,93.79
2022-12-22T04:40:23.421Z,94.13
2022-12-22T04:41:25.324Z,93.97
2022-12-22T04:42:27.231Z,94.17
2022-12-22T04:43:29.763Z,94.15
2022-12-22T04:44:31.646Z,94.30
2022-12-22T04:45:33.627Z,94.15
2022-12-22T04:46:35.570Z,94.55
2022-12-22T04:47:37.420Z,94.71
2022-12-22T04:48:39.241Z,94.44
2022-12-22T04:49:41.039Z,95.02
2022-12-22T04:50:43.019Z,94.72
2022-12-22T04:51:45.467Z,95.25
2022-12-22T04:52:47.429Z,94.87
2022-12-22T04:53:49.200Z,94.97
2022-12-22T04:54:51.086Z,95.60
2022-12-22T04:55:58.153Z,95.17
2022-12-22T04:57:00.045Z,94.89
2022-12-22T04:58:01.995Z,94.76
2022-12-22T04:59:03.948Z,94.74
2022-12-22T05:00:06.116Z,94.73
2022-12-22T05:01:09.381Z,95.38
2022-12-22T05:02:11.605Z,94.81
2022-12-22T05:03:13.546Z,95.10
2022-12-22T05:04:20.287Z,95.15
2022-12-22T05:05:25.532Z,94.80
2022-12-22T05:06:27.395Z,95.17
2022-12-22T05:07:29.329Z,94.80
2022-12-22T05:08:31.190Z,95.17
2022-12-22T05:09:33.064Z,94.98
2022-12-22T05:10:35.077Z,95.02
2022-12-22T05:11:37.036Z,95.10
2022-12-22T05:12:56.806Z,94.91
2022-12-22T05:14:05.226Z,94.65
2022-12-22T05:15:09.071Z,94.77
2022-12-22T05:16:14.998Z,94.44
2022-12-22T05:17:16.873Z,94.66
2022-12-22T05:18:18.640Z,94.81
2022-12-22T05:19:21.762Z,94.54
2022-12-22T05:20:25.858Z,94.67
2022-12-22T05:21:27.680Z,94.48
2022-12-22T05:22:29.511Z,94.45
2022-12-22T05:23:31.319Z,94.65
2022-12-22T05:24:33.247Z,94.69
2022-12-22T05:25:35.778Z,94.50
2022-12-22T05:26:37.669Z,94.76
2022-12-22T05:27:39.491Z,94.45
2022-12-22T05:28:42.147Z,94.50
2022-12-22T05:29:45.544Z,94.43
2022-12-22T05:30:47.498Z,94.27
2022-12-22T05:31:49.354Z,94.13
2022-12-22T05:32:51.183Z,94.23
2022-12-22T05:33:53.203Z,94.04
2022-12-22T05:34:55.126Z,94.07
2022-12-22T05:35:56.928Z,93.99
2022-12-22T05:36:58.683Z,94.32
2022-12-22T05:38:00.594Z,94.50
2022-12-22T05:39:02.390Z,94.42
2022-12-22T05:40:04.854Z,94.37
2022-12-22T05:41:07.346Z,94.35
2022-12-22T05:42:09.254Z,94.02
2022-12-22T05:43:11.228Z,94.02
2022-12-22T05:44:13.081Z,94.11
2022-12-22T05:45:16.957Z,94.53
2022-12-22T05:46:18.897Z,94.12
2022-12-22T05:47:20.829Z,94.08
2022-12-22T05:48:28.500Z,94.02
2022-12-22T05:49:33.979Z,94.43
2022-12-22T05:50:35.716Z,94.17
2022-12-22T05:51:37.623Z,94.17
2022-12-22T05:52:39.805Z,94.35
2022-12-22T05:53:42.734Z,94.35
2022-12-22T05:54:44.543Z,94.48
2022-12-22T05:55:46.381Z,94.80
2022-12-22T05:56:48.291Z,94.61
2022-12-22T05:57:50.167Z,94.56
2022-12-22T05:58:53.501Z,94.50
2022-12-22T05:59:55.418Z,94.07
2022-12-22T06:00:58.551Z,94.18
2022-12-22T06:02:00.630Z,94.29
2022-12-22T06:03:02.869Z,93.85
2022-12-22T06:04:05.430Z,93.89
2022-12-22T06:05:07.585Z,93.44
2022-12-22T06:06:09.468Z,93.96
2022-12-22T06:07:11.494Z,93.66
2022-12-22T06:08:13.333Z,93.66
2022-12-22T06:09:15.247Z,93.90
2022-12-22T06:10:17.154Z,93.86
2022-12-22T06:11:19.682Z,93.81
2022-12-22T06:12:21.624Z,93.65
2022-12-22T06:13:23.688Z,93.63
2022-12-22T06:14:25.559Z,93.78
2022-12-22T06:15:27.377Z,94.07
2022-12-22T06:16:29.679Z,94.17
2022-12-22T06:17:31.550Z,93.85
2022-12-22T06:18:33.416Z,94.18
2022-12-22T06:19:35.566Z,93.90
2022-12-22T06:20:37.409Z,94.24
2022-12-22T06:21:39.521Z,93.66
2022-12-22T06:22:41.291Z,94.07
2022-12-22T06:23:43.150Z,93.96
2022-12-22T06:24:45.155Z,93.87
2022-12-22T06:25:56.179Z,94.00
2022-12-22T06:26:58.079Z,94.25
2022-12-22T06:27:59.977Z,93.93
2022-12-22T06:29:01.974Z,93.91
2022-12-22T06:30:04.197Z,93.72
2022-12-22T06:31:06.022Z,93.72
2022-12-22T06:32:07.810Z,93.85
2022-12-22T06:33:09.632Z,94.09
2022-12-22T06:34:11.609Z,93.74
2022-12-22T06:35:13.511Z,93.55
2022-12-22T06:36:15.363Z,94.01
2022-12-22T06:37:17.240Z,93.99
2022-12-22T06:38:19.028Z,93.92
2022-12-22T06:39:20.930Z,93.69
2022-12-22T06:40:22.848Z,93.48
2022-12-22T06:41:42.723Z,93.66
2022-12-22T06:43:08.289Z,93.35
2022-12-22T06:44:10.653Z,93.49
2022-12-22T06:45:12.559Z,93.47
2022-12-22T06:46:14.490Z,93.31
2022-12-22T06:47:16.640Z,93.46
2022-12-22T06:48:18.813Z,93.32
2022-12-22T06:49:20.784Z,93.55
2022-12-22T06:50:22.633Z,93.45
2022-12-22T06:51:24.418Z,93.22
2022-12-22T06:52:26.243Z,93.05
2022-12-22T06:53:28.159Z,93.50
2022-12-22T06:54:30.028Z,93.28
2022-12-22T06:55:32.031Z,93.33
2022-12-22T06:56:34.628Z,93.50
2022-12-22T06:57:36.492Z,93.17
2022-12-22T06:58:38.342Z,93.53
2022-12-22T06:59:40.253Z,93.52
2022-12-22T07:00:43.440Z,93.28
2022-12-22T07:01:45.508Z,92.93
2022-12-22T07:02:47.534Z,93.11
2022-12-22T07:03:49.657Z,93.05
2022-12-22T07:04:51.766Z,93.46
2022-12-22T07:05:54.014Z,93.21
2022-12-22T07:06:55.914Z,93.43
2022-12-22T07:08:02.512Z,93.29
2022-12-22T07:09:07.912Z,93.54
2022-12-22T07:10:09.920Z,93.73
2022-12-22T07:11:12.056Z,93.61
2022-12-22T07:12:13.913Z,93.81
2022-12-22T07:13:22.001Z,93.88
2022-12-22T07:14:23.858Z,93.75
2022-12-22T07:15:25.609Z,93.42
2022-12-22T07:16:27.510Z,93.83
2022-12-22T07:17:29.310Z,93.53
2022-12-22T07:18:32.661Z,93.82
2022-12-22T07:19:34.607Z,93.51
2022-12-22T07:20:36.429Z,93.55
2022-12-22T07:21:38.313Z,93.55
2022-12-22T07:22:40.190Z,93.60
2022-12-22T07:23:42.288Z,93.80
2022-12-22T07:24:44.103Z,93.34
2022-12-22T07:25:45.981Z,93.67
2022-12-22T07:26:47.812Z,93.28
2022-12-22T07:27:49.738Z,93.09
2022-12-22T07:28:51.649Z,93.36
2022-12-22T07:29:53.469Z,92.96
2022-12-22T07:30:55.454Z,92.78
2022-12-22T07:31:57.649Z,93.37
2022-12-22T07:32:59.708Z,93.45
2022-12-22T07:34:01.613Z,93.33
2022-12-22T07:35:05.913Z,93.08
2022-12-22T07:36:10.514Z,93.10
2022-12-22T07:37:13.973Z,93.07
2022-12-22T07:38:15.850Z,92.94
2022-12-22T07:39:17.713Z,92.40
2022-12-22T07:40:19.602Z,92.59
2022-12-22T07:41:39.967Z,92.68
2022-12-22T07:42:47.732Z,93.04
2022-12-22T07:43:49.580Z,92.98
2022-12-22T07:44:51.494Z,92.78
2022-12-22T07:45:53.410Z,93.17
2022-12-22T07:46:55.395Z,92.97
2022-12-22T07:48:00.870Z,92.92
2022-12-22T07:49:21.239Z,92.84
2022-12-22T07:50:25.784Z,92.71
2022-12-22T07:51:27.788Z,92.62
2022-12-22T07:52:29.654Z,92.80
2022-12-22T07:53:32.063Z,92.70
2022-12-22T07:54:41.148Z,92.61
2022-12-22T07:55:43.459Z,91.93
2022-12-22T07:56:46.787Z,92.32
2022-12-22T07:57:48.703Z,92.12
2022-12-22T07:58:50.544Z,92.35
2022-12-22T07:59:52.996Z,91.94
2022-12-22T08:01:01.738Z,91.94
2022-12-22T08:02:03.832Z,92.07
2022-12-22T08:03:06.453Z,91.75
2022-12-22T08:04:09.368Z,91.96
2022-12-22T08:05:11.353Z,91.54
2022-12-22T08:06:13.258Z,91.70
2022-12-22T08:07:15.162Z,92.21
2022-12-22T08:08:17.073Z,91.49
2022-12-22T08:09:21.816Z,91.45
2022-12-22T08:10:23.858Z,91.45
2022-12-22T08:11:25.945Z,91.40
2022-12-22T08:12:29.932Z,91.67
2022-12-22T08:13:32.178Z,91.54
2022-12-22T08:14:34.041Z,91.52
2022-12-22T08:15:35.888Z,91.75
2022-12-22T08:16:37.922Z,91.80
2022-12-22T08:17:40.378Z,91.62
2022-12-22T08:18:42.177Z,91.96
2022-12-22T08:19:44.089Z,91.79
2022-12-22T08:20:50.618Z,91.54
2022-12-22T08:21:53.784Z,91.76
2022-12-22T08:22:56.938Z,91.53
2022-12-22T08:23:58.811Z,91.72
2022-12-22T08:25:00.725Z,91.63
2022-12-22T08:26:02.545Z,91.66
2022-12-22T08:27:06.760Z,91.38
2022-12-22T08:28:08.766Z,91.42
2022-12-22T08:29:16.198Z,91.63
2022-12-22T08:30:18.168Z,91.73
2022-12-22T08:31:21.130Z,91.55
2022-12-22T08:32:23.126Z,91.49
2022-12-22T08:33:25.012Z,91.34
2022-12-22T08:34:27.113Z,91.42
2022-12-22T08:35:29.439Z,91.36
2022-12-22T08:36:34.057Z,91.32
2022-12-22T08:37:41.620Z,91.43
2022-12-22T08:38:43.951Z,91.51
2022-12-22T08:39:48.885Z,91.15
2022-12-22T08:40:51.127Z,90.92
2022-12-22T08:41:53.765Z,90.98
2022-12-22T08:43:02.781Z,90.84
2022-12-22T08:44:04.740Z,90.64
2022-12-22T08:45:09.542Z,91.04
2022-12-22T08:46:11.867Z,90.77
2022-12-22T08:47:17.199Z,90.87
2022-12-22T08:48:19.356Z,91.11
2022-12-22T08:49:21.180Z,90.93
2022-12-22T08:50:23.574Z,90.76
2022-12-22T08:51:25.477Z,91.10
2022-12-22T08:52:27.400Z,90.84
2022-12-22T08:54:03.346Z,90.76
2022-12-22T08:54:51.013Z,90.83
2022-12-22T08:55:54.317Z,90.74
2022-12-22T08:56:56.380Z,90.78
2022-12-22T08:57:58.253Z,90.87
2022-12-22T08:59:01.516Z,90.55
2022-12-22T09:00:04.591Z,90.79
2022-12-22T09:01:07.820Z,90.59
2022-12-22T09:02:09.802Z,90.60
2022-12-22T09:03:11.878Z,90.69
2022-12-22T09:04:14.437Z,90.56
2022-12-22T09:05:16.383Z,90.57
2022-12-22T09:06:21.513Z,90.70
2022-12-22T09:07:28.592Z,90.63
2022-12-22T09:08:30.453Z,90.81
2022-12-22T09:09:33.328Z,90.64
2022-12-22T09:10:35.211Z,90.89
2022-12-22T09:11:37.047Z,90.78
2022-12-22T09:12:38.863Z,90.95
2022-12-22T09:13:40.704Z,90.91
2022-12-22T09:14:42.577Z,90.88
2022-12-22T09:15:44.432Z,90.98
2022-12-22T09:16:46.364Z,90.57
2022-12-22T09:17:49.834Z,90.85
2022-12-22T09:18:51.723Z,90.79
2022-12-22T09:19:53.536Z,90.83
2022-12-22T09:20:56.274Z,90.67
2022-12-22T09:21:58.179Z,90.71
2022-12-22T09:23:00.710Z,90.36
2022-12-22T09:24:03.572Z,90.42
2022-12-22T09:25:05.799Z,90.41
2022-12-22T09:26:17.768Z,90.52
2022-12-22T09:27:20.808Z,90.54
2022-12-22T09:28:22.589Z,90.47
2022-12-22T09:29:24.448Z,90.86
2022-12-22T09:30:26.267Z,90.40
2022-12-22T09:31:28.500Z,90.76
2022-12-22T09:32:30.895Z,90.29
2022-12-22T09:33:33.231Z,90.12
2022-12-22T09:34:35.039Z,90.40
2022-12-22T09:35:41.028Z,90.31
2022-12-22T09:36:43.015Z,90.11
2022-12-22T09:37:44.961Z,89.90
2022-12-22T09:38:46.959Z,90.07
2022-12-22T09:39:48.811Z,89.71
2022-12-22T09:40:50.660Z,90.00
2022-12-22T09:41:57.147Z,89.78
2022-12-22T09:42:59.781Z,89.63
2022-12-22T09:44:06.004Z,89.80
2022-12-22T09:45:17.016Z,89.93
2022-12-22T09:46:25.480Z,89.89
2022-12-22T09:47:40.337Z,89.98
2022-12-22T09:48:42.132Z,89.96
2022-12-22T09:49:44.128Z,89.96
2022-12-22T09:50:46.368Z,90.46
2022-12-22T09:51:58.427Z,90.42
2022-12-22T09:53:04.174Z,90.07
2022-12-22T09:54:06.343Z,90.37
2022-12-22T09:55:34.377Z,90.18
2022-12-22T09:56:36.256Z,90.71
2022-12-22T09:57:38.162Z,90.36
2022-12-22T09:58:40.269Z,90.29
2022-12-22T09:59:42.089Z,90.32
2022-12-22T10:00:44.115Z,90.21
2022-12-22T10:01:57.471Z,90.37
2022-12-22T10:02:59.428Z,90.23
2022-12-22T10:04:10.203Z,90.32
2022-12-22T10:05:12.063Z,90.27
2022-12-22T10:06:19.266Z,89.94
2022-12-22T10:07:29.533Z,90.23
2022-12-22T10:08:35.803Z,90.56
2022-12-22T10:09:52.913Z,90.46
2022-12-22T10:10:55.638Z,90.42
2022-12-22T10:11:58.596Z,90.26
2022-12-22T10:13:02.216Z,90.14
2022-12-22T10:14:04.082Z,90.45
2022-12-22T10:15:11.736Z,90.42
2022-12-22T10:16:22.721Z,90.34
2022-12-22T10:17:26.191Z,90.34
2022-12-22T10:18:29.349Z,90.21
2022-12-22T10:19:31.327Z,90.17
2022-12-22T10:20:33.128Z,90.74
2022-12-22T10:21:35.066Z,90.11
2022-12-22T10:22:46.569Z,90.59
2022-12-22T10:23:49.164Z,90.13
2022-12-22T10:24:51.078Z,90.21
2022-12-22T10:27:27.479Z,89.69
2022-12-22T10:28:35.672Z,90.35
2022-12-22T10:29:37.521Z,89.70
2022-12-22T10:30:40.736Z,90.13
2022-12-22T10:32:01.407Z,89.94
2022-12-22T10:33:06.091Z,89.80
2022-12-22T10:34:18.143Z,89.76
2022-12-22T10:35:20.053Z,89.97
2022-12-22T10:36:23.918Z,90.09
2022-12-22T10:37:33.647Z,90.34
2022-12-22T10:38:36.895Z,89.72
2022-12-22T10:39:38.885Z,89.67
2022-12-22T10:40:45.298Z,89.80
2022-12-22T10:41:48.909Z,89.86
2022-12-22T10:42:53.363Z,89.79
2022-12-22T10:43:57.013Z,90.13
2022-12-22T10:46:05.458Z,89.49
2022-12-22T10:47:20.676Z,89.65
2022-12-22T10:48:26.466Z,89.72
2022-12-22T10:50:44.847Z,89.79
2022-12-22T10:51:48.646Z,89.86
2022-12-22T10:52:54.414Z,89.93
2022-12-22T10:53:56.581Z,89.82
2022-12-22T10:55:18.108Z,90.31
2022-12-22T10:56:27.510Z,90.44
2022-12-22T10:57:30.235Z,89.54
2022-12-22T10:58:32.038Z,89.87
2022-12-22T10:59:34.677Z,89.34
2022-12-22T11:00:37.612Z,89.04
2022-12-22T11:01:39.726Z,89.11
2022-12-22T11:02:41.742Z,89.65
2022-12-22T11:03:43.870Z,89.48
2022-12-22T11:04:45.890Z,89.29
2022-12-22T11:05:47.879Z,89.60
2022-12-22T11:06:50.136Z,89.85
2022-12-22T11:07:52.050Z,89.44
2022-12-22T11:08:58.180Z,89.34
2022-12-22T11:10:32.659Z,89.07
2022-12-22T11:12:02.012Z,88.92
2022-12-22T11:13:16.578Z,89.38
2022-12-22T11:14:24.181Z,88.80
2022-12-22T11:15:44.760Z,89.44
2022-12-22T11:17:02.840Z,88.86
2022-12-22T11:18:04.775Z,89.52
2022-12-22T11:19:24.670Z,89.04
2022-12-22T11:20:44.932Z,89.46
2022-12-22T11:22:04.431Z,89.37
2022-12-22T11:23:09.276Z,89.00
2022-12-22T11:24:29.501Z,89.06
2022-12-22T11:25:37.321Z,88.96
2022-12-22T11:27:04.051Z,89.05
2022-12-22T11:28:14.995Z,88.77
2022-12-22T11:29:19.951Z,89.18
2022-12-22T11:30:27.809Z,88.92
2022-12-22T11:31:38.705Z,88.36
2022-12-22T11:32:40.444Z,88.96
2022-12-22T11:33:51.826Z,89.06
2022-12-22T11:35:05.673Z,88.25
2022-12-22T11:36:20.114Z,89.04
2022-12-22T11:37:21.812Z,88.80
2022-12-22T11:38:26.723Z,88.99
2022-12-22T11:39:28.591Z,88.21
2022-12-22T11:40:40.044Z,88.04
2022-12-22T11:41:44.940Z,88.62
2022-12-22T11:42:56.039Z,88.93
2022-12-22T11:44:03.919Z,88.21
2022-12-22T11:45:24.421Z,88.22
2022-12-22T11:46:35.704Z,88.63
2022-12-22T11:47:49.629Z,88.84
2022-12-22T11:49:10.156Z,88.17
2022-12-22T11:51:01.889Z,87.80
2022-12-22T11:51:55.941Z,88.21
2022-12-22T11:52:57.842Z,87.67
2022-12-22T11:54:02.807Z,88.15
2022-12-22T11:55:10.059Z,88.19
2022-12-22T11:56:24.240Z,88.25
2022-12-22T11:57:34.924Z,87.56
2022-12-22T11:58:48.439Z,87.87
2022-12-22T11:59:50.295Z,88.07
2022-12-22T12:02:24.659Z,88.26
2022-12-22T12:03:51.373Z,87.76
2022-12-22T12:05:11.977Z,88.26
2022-12-22T12:06:28.807Z,88.16
2022-12-22T12:07:41.034Z,88.11
2022-12-22T12:08:51.337Z,88.26
2022-12-22T12:09:53.239Z,87.79
2022-12-22T12:11:18.799Z,88.23
2022-12-22T12:12:27.276Z,88.33
2022-12-22T12:13:50.078Z,87.95
2022-12-22T12:15:10.517Z,87.88
2022-12-22T12:16:19.117Z,88.48
2022-12-22T12:17:21.015Z,87.72
2022-12-22T12:18:32.035Z,88.34
2022-12-22T12:19:36.835Z,88.47
2022-12-22T12:20:49.541Z,88.66
2022-12-22T12:22:10.902Z,89.53
2022-12-22T12:23:31.847Z,89.82
2022-12-22T12:24:42.590Z,90.77
2022-12-22T12:25:59.918Z,91.24
2022-12-22T12:27:13.928Z,91.20
2022-12-22T12:28:29.922Z,92.82
2022-12-22T12:30:35.814Z,92.64
2022-12-22T12:31:24.306Z,92.84
2022-12-22T12:32:36.799Z,93.23
2022-12-22T12:33:56.446Z,93.77
2022-12-22T12:35:03.851Z,94.14
2022-12-22T12:36:25.067Z,94.30
2022-12-22T12:37:32.097Z,95.32
2022-12-22T12:39:06.743Z,95.74
2022-12-22T12:40:01.935Z,95.49
2022-12-22T12:41:26.747Z,96.69
2022-12-22T12:42:34.258Z,96.50
2022-12-22T12:43:37.143Z,97.15
2022-12-22T12:44:39.394Z,97.14
2022-12-22T12:45:45.734Z,97.54
2022-12-22T12:46:50.643Z,97.36
2022-12-22T12:47:52.435Z,97.22
2022-12-22T12:48:58.086Z,97.46
2022-12-22T12:50:00.042Z,97.41
2022-12-22T12:51:01.941Z,97.71
2022-12-22T12:52:08.129Z,97.08
2022-12-22T12:53:11.350Z,97.31
2022-12-22T12:54:44.112Z,97.55
2022-12-22T12:55:54.170Z,97.61
2022-12-22T12:56:59.989Z,97.13
2022-12-22T12:58:04.490Z,97.21
2022-12-22T12:59:07.854Z,97.98
2022-12-22T13:00:29.827Z,98.23
2022-12-22T13:01:31.827Z,98.25
2022-12-22T13:02:36.025Z,98.30
2022-12-22T13:04:09.422Z,98.73
2022-12-22T13:05:02.544Z,98.81
2022-12-22T13:06:05.821Z,98.01
2022-12-22T13:07:07.790Z,98.89
2022-12-22T13:08:12.677Z,98.62
2022-12-22T13:09:50.533Z,98.81
2022-12-22T13:10:46.916Z,99.56
2022-12-22T13:12:11.687Z,99.13
2022-12-22T13:13:13.685Z,99.82
2022-12-22T13:14:35.485Z,99.07
2022-12-22T13:15:38.766Z,99.36
2022-12-22T13:16:41.057Z,99.40
2022-12-22T13:17:50.007Z,99.52
2022-12-22T13:18:52.122Z,99.26
2022-12-22T13:19:54.140Z,99.32
2022-12-22T13:21:26.321Z,99.27
2022-12-22T13:22:22.236Z,99.37
2022-12-22T13:23:24.682Z,99.07
2022-12-22T13:24:29.422Z,99.27
2022-12-22T13:25:53.704Z,98.92
2022-12-22T13:26:57.227Z,98.94
2022-12-22T13:27:59.206Z,98.44
2022-12-22T13:29:03.586Z,98.28
2022-12-22T13:30:11.238Z,98.88
2022-12-22T13:31:18.777Z,98.70
2022-12-22T13:32:22.964Z,98.13
2022-12-22T13:33:25.652Z,98.74
2022-12-22T13:34:46.102Z,98.45
2022-12-22T13:35:59.287Z,97.97
2022-12-22T13:37:04.627Z,97.50
2022-12-22T13:38:07.031Z,98.30
2022-12-22T13:39:14.734Z,98.29
2022-12-22T13:40:24.418Z,97.95
2022-12-22T13:41:27.678Z,97.20
2022-12-22T13:42:31.455Z,97.83
2022-12-22T13:43:33.580Z,97.71
2022-12-22T13:44:35.617Z,97.86
2022-12-22T13:45:39.360Z,98.26
2022-12-22T13:46:42.636Z,97.68
2022-12-22T13:47:46.540Z,98.31
2022-12-22T13:48:49.813Z,97.99
2022-12-22T13:50:08.394Z,98.47
2022-12-22T13:51:22.340Z,98.40
2022-12-22T13:52:24.578Z,98.51
2022-12-22T13:54:54.988Z,99.19
2022-12-22T13:55:57.721Z,98.73
2022-12-22T13:57:01.041Z,98.72
2022-12-22T13:58:08.258Z,98.81
2022-12-22T13:59:28.467Z,99.60
2022-12-22T14:00:30.499Z,99.26
2022-12-22T14:01:32.637Z,98.98
2022-12-22T14:02:34.542Z,98.73
2022-12-22T14:03:59.584Z,99.52
2022-12-22T14:05:06.228Z,99.02
2022-12-22T14:06:26.941Z,98.34
2022-12-22T14:07:28.820Z,98.85
2022-12-22T14:08:30.555Z,98.94
2022-12-22T14:09:32.440Z,99.10
2022-12-22T14:10:43.124Z,99.01
2022-12-22T14:11:51.720Z,99.00
2022-12-22T14:12:54.666Z,98.97
2022-12-22T14:13:56.478Z,99.14
2022-12-22T14:15:00.157Z,98.78
2022-12-22T14:16:02.913Z,98.77
2022-12-22T14:17:05.506Z,99.21
2022-12-22T14:18:07.418Z,99.40
2022-12-22T14:19:11.643Z,99.32
2022-12-22T14:20:27.476Z,99.64
2022-12-22T14:21:29.491Z,99.63
2022-12-22T14:22:38.234Z,99.27
2022-12-22T14:23:41.894Z,98.83
2022-12-22T14:25:04.655Z,98.98
2022-12-22T14:26:08.508Z,99.63
2022-12-22T14:27:19.032Z,98.81
2022-12-22T14:28:25.799Z,99.27
2022-12-22T14:29:29.086Z,98.90
2022-12-22T14:30:38.233Z,98.83
2022-12-22T14:31:53.011Z,99.41
2022-12-22T14:32:56.371Z,99.34
2022-12-22T14:34:17.436Z,99.29
2022-12-22T14:35:22.527Z,99.38
2022-12-22T14:36:25.339Z,98.96
2022-12-22T14:37:32.423Z,99.25
2022-12-22T14:38:45.295Z,99.64
2022-12-22T14:39:55.116Z,98.77
2022-12-22T14:40:58.012Z,99.18
2022-12-22T14:42:11.999Z,99.63
2022-12-22T14:43:24.061Z,99.50
2022-12-22T14:44:27.180Z,99.41
2022-12-22T14:45:29.208Z,99.84
2022-12-22T14:46:38.464Z,99.88
2022-12-22T14:47:40.842Z,99.71
2022-12-22T14:48:46.806Z,100.00
2022-12-22T14:49:51.470Z,100.00
2022-12-22T14:50:54.104Z,100.00
2022-12-22T14:52:01.101Z,100.00
2022-12-22T14:53:06.297Z,100.00
2022-12-22T14:54:19.116Z,100.00